createdAt,value
2024-05-09T00:00:40.445Z,54.73
2024-05-09T00:03:09.840Z,54.41
2024-05-09T00:05:38.098Z,54.80
2024-05-09T00:08:05.529Z,55.35
2024-05-09T00:10:37.103Z,56.03
2024-05-09T00:13:07.165Z,56.55
2024-05-09T00:15:35.058Z,57.14
2024-05-09T00:18:03.259Z,57.35
2024-05-09T00:20:37.634Z,57.56
2024-05-09T00:23:13.918Z,57.65
2024-05-09T00:25:44.574Z,58.00
2024-05-09T00:28:12.327Z,58.19
2024-05-09T00:30:39.333Z,57.79
2024-05-09T00:33:07.783Z,58.09
2024-05-09T00:35:35.983Z,58.36
2024-05-09T00:38:03.108Z,58.26
2024-05-09T00:40:40.431Z,58.22
2024-05-09T00:43:10.498Z,58.25
2024-05-09T00:45:37.439Z,58.22
2024-05-09T00:48:07.737Z,58.16
2024-05-09T00:50:37.956Z,58.36
2024-05-09T00:53:11.077Z,57.93
2024-05-09T00:55:39.627Z,58.24
2024-05-09T00:58:09.042Z,58.12
2024-05-09T01:00:39.767Z,58.42
2024-05-09T01:03:13.035Z,58.44
2024-05-09T01:05:44.426Z,59.28
2024-05-09T01:08:12.772Z,59.84
2024-05-09T01:10:42.840Z,60.40
2024-05-09T01:13:11.814Z,60.59
2024-05-09T01:15:38.573Z,60.76
2024-05-09T01:18:13.714Z,60.39
2024-05-09T01:20:43.874Z,60.88
2024-05-09T01:23:14.418Z,61.06
2024-05-09T01:25:43.511Z,61.41
2024-05-09T01:28:10.536Z,61.44
2024-05-09T01:30:38.122Z,61.49
2024-05-09T01:33:08.065Z,61.77
2024-05-09T01:35:37.041Z,61.56
2024-05-09T01:38:04.280Z,61.41
2024-05-09T01:40:38.322Z,61.48
2024-05-09T01:43:11.203Z,61.47
2024-05-09T01:45:40.042Z,61.11
2024-05-09T01:48:08.158Z,60.37
2024-05-09T01:50:39.691Z,59.79
2024-05-09T01:53:10.286Z,59.58
2024-05-09T01:55:37.262Z,59.24
2024-05-09T01:58:04.235Z,58.97
2024-05-09T02:00:38.724Z,59.19
2024-05-09T02:03:10.737Z,59.67
2024-05-09T02:05:39.435Z,60.25
2024-05-09T02:08:07.268Z,60.54
2024-05-09T02:10:34.057Z,60.81
2024-05-09T02:13:01.186Z,61.46
2024-05-09T02:15:27.990Z,61.79
2024-05-09T02:17:55.333Z,61.78
2024-05-09T02:20:30.607Z,62.10
2024-05-09T02:23:04.052Z,62.35
2024-05-09T02:25:31.913Z,62.33
2024-05-09T02:27:59.016Z,61.76
2024-05-09T02:30:35.790Z,61.63
2024-05-09T02:33:07.339Z,61.15
2024-05-09T02:35:34.630Z,60.98
2024-05-09T02:38:01.572Z,60.55
2024-05-09T02:40:36.023Z,60.19
2024-05-09T02:43:05.945Z,59.75
2024-05-09T02:45:33.331Z,59.53
2024-05-09T02:48:00.969Z,59.41
2024-05-09T02:50:34.621Z,59.72
2024-05-09T02:53:06.346Z,60.33
2024-05-09T02:55:33.297Z,60.49
2024-05-09T02:58:00.347Z,61.05
2024-05-09T03:00:35.241Z,61.23
2024-05-09T03:03:08.490Z,61.48
2024-05-09T03:05:36.946Z,61.57
2024-05-09T03:08:04.423Z,61.75
2024-05-09T03:10:36.014Z,61.96
2024-05-09T03:13:13.236Z,62.02
2024-05-09T03:15:41.982Z,62.60
2024-05-09T03:18:09.045Z,62.91
2024-05-09T03:20:37.115Z,62.64
2024-05-09T03:23:05.693Z,62.59
2024-05-09T03:25:33.226Z,62.59
2024-05-09T03:28:00.063Z,62.34
2024-05-09T03:30:38.727Z,61.97
2024-05-09T03:33:20.151Z,61.58
2024-05-09T03:35:48.393Z,61.66
2024-05-09T03:38:15.847Z,62.00
2024-05-09T03:40:46.792Z,62.02
2024-05-09T03:43:14.701Z,62.08
2024-05-09T03:45:45.421Z,62.54
2024-05-09T03:48:12.766Z,62.96
2024-05-09T03:50:40.030Z,63.21
2024-05-09T03:53:10.269Z,63.13
2024-05-09T03:55:37.138Z,63.41
2024-05-09T03:58:04.944Z,63.72
2024-05-09T04:00:37.743Z,64.00
2024-05-09T04:03:09.318Z,64.08
2024-05-09T04:05:40.691Z,64.23
2024-05-09T04:08:09.198Z,63.82
2024-05-09T04:10:36.222Z,63.75
2024-05-09T04:13:04.259Z,63.89
2024-05-09T04:15:31.454Z,64.08
2024-05-09T04:17:58.654Z,64.32
2024-05-09T04:20:35.958Z,64.49
2024-05-09T04:23:07.314Z,64.17
2024-05-09T04:25:34.942Z,64.81
2024-05-09T04:28:01.788Z,64.27
2024-05-09T04:30:37.501Z,64.14
2024-05-09T04:33:09.555Z,64.04
2024-05-09T04:35:38.815Z,64.44
2024-05-09T04:38:06.102Z,64.66
2024-05-09T04:40:36.003Z,64.69
2024-05-09T04:43:13.623Z,64.92
2024-05-09T04:45:40.779Z,64.85
2024-05-09T04:48:08.189Z,65.40
2024-05-09T04:50:38.333Z,65.69
2024-05-09T04:53:08.464Z,66.01
2024-05-09T04:55:36.831Z,66.03
2024-05-09T04:58:03.831Z,65.68
2024-05-09T05:00:36.331Z,66.24
2024-05-09T05:03:13.436Z,65.81
2024-05-09T05:05:43.503Z,65.97
2024-05-09T05:08:17.013Z,66.26
2024-05-09T05:10:45.379Z,66.32
2024-05-09T05:13:25.038Z,67.05
2024-05-09T05:15:58.705Z,66.36
2024-05-09T05:18:27.662Z,66.97
2024-05-09T05:20:56.062Z,66.84
2024-05-09T05:23:23.436Z,66.93
2024-05-09T05:25:52.725Z,67.36
2024-05-09T05:28:20.182Z,67.33
2024-05-09T05:30:47.410Z,67.10
2024-05-09T05:33:16.068Z,66.39
2024-05-09T05:35:43.497Z,66.34
2024-05-09T05:38:11.038Z,65.49
2024-05-09T05:40:39.253Z,64.61
2024-05-09T05:43:09.215Z,64.30
2024-05-09T05:45:36.398Z,63.67
2024-05-09T05:48:05.783Z,62.83
2024-05-09T05:50:36.569Z,62.03
2024-05-09T05:53:10.351Z,61.02
2024-05-09T05:55:40.574Z,60.40
2024-05-09T05:58:11.162Z,59.80
2024-05-09T06:00:40.093Z,59.67
2024-05-09T06:03:09.636Z,59.39
2024-05-09T06:05:40.235Z,59.51
2024-05-09T06:08:08.286Z,58.27
2024-05-09T06:10:39.135Z,57.47
2024-05-09T06:13:10.497Z,57.36
2024-05-09T06:15:37.417Z,56.22
2024-05-09T06:18:11.673Z,52.03
2024-05-09T06:20:43.968Z,49.21
2024-05-09T06:23:12.174Z,46.41
2024-05-09T06:25:39.424Z,45.20
2024-05-09T06:28:06.794Z,43.21
2024-05-09T06:30:40.065Z,41.88
2024-05-09T06:33:11.750Z,41.75
2024-05-09T06:35:40.697Z,40.15
2024-05-09T06:38:11.454Z,39.64
2024-05-09T06:40:43.896Z,40.02
2024-05-09T06:43:16.155Z,38.25
2024-05-09T06:45:46.127Z,36.79
2024-05-09T06:48:13.099Z,36.55
2024-05-09T06:50:41.207Z,36.40
2024-05-09T06:53:09.222Z,36.02
2024-05-09T06:55:37.079Z,35.87
2024-05-09T06:58:07.516Z,35.52
2024-05-09T07:00:39.180Z,34.19
2024-05-09T07:03:14.161Z,34.46
2024-05-09T07:05:43.601Z,34.88
2024-05-09T07:08:10.525Z,35.00
2024-05-09T07:10:37.775Z,33.57
2024-05-09T07:13:09.468Z,33.26
2024-05-09T07:15:36.358Z,33.11
2024-05-09T07:18:29.896Z,33.97
2024-05-09T07:20:56.752Z,33.24
2024-05-09T07:23:23.550Z,32.99
2024-05-09T07:25:51.020Z,32.79
2024-05-09T07:28:19.272Z,33.02
2024-05-09T07:30:46.345Z,33.03
2024-05-09T07:33:17.885Z,32.55
2024-05-09T07:35:45.322Z,33.01
2024-05-09T07:38:12.457Z,32.08
2024-05-09T07:40:40.909Z,32.04
2024-05-09T07:43:14.196Z,32.81
2024-05-09T07:45:50.664Z,32.60
2024-05-09T07:52:38.556Z,31.95
2024-05-09T07:53:46.539Z,33.54
2024-05-09T07:56:17.676Z,34.10
2024-05-09T07:58:45.786Z,33.82
2024-05-09T08:01:12.829Z,34.11
2024-05-09T08:03:39.903Z,35.03
2024-05-09T08:06:06.821Z,35.53
2024-05-09T08:08:33.547Z,35.81
2024-05-09T08:11:00.531Z,34.83
2024-05-09T08:13:27.252Z,35.10
2024-05-09T08:15:55.182Z,35.29
2024-05-09T08:18:22.001Z,35.35
2024-05-09T08:20:51.843Z,35.45
2024-05-09T08:23:18.639Z,36.09
2024-05-09T08:25:45.450Z,35.92
2024-05-09T08:28:12.915Z,36.58
2024-05-09T08:30:40.009Z,36.16
2024-05-09T08:33:07.772Z,37.67
2024-05-09T08:35:35.328Z,36.69
2024-05-09T08:38:07.138Z,36.52
2024-05-09T08:40:36.783Z,36.03
2024-05-09T08:43:10.858Z,36.55
2024-05-09T08:45:44.321Z,36.11
2024-05-09T08:48:13.861Z,36.41
2024-05-09T08:50:41.798Z,37.15
2024-05-09T08:53:09.195Z,36.18
2024-05-09T08:55:40.550Z,36.69
2024-05-09T08:58:14.366Z,37.18
2024-05-09T09:00:43.591Z,37.25
2024-05-09T09:03:16.022Z,37.08
2024-05-09T09:05:50.774Z,36.73
2024-05-09T09:08:18.702Z,36.52
2024-05-09T09:10:47.704Z,35.57
2024-05-09T09:13:14.801Z,36.27
2024-05-09T09:15:48.362Z,35.42
2024-05-09T09:18:16.415Z,36.46
2024-05-09T09:20:44.503Z,35.83
2024-05-09T09:23:11.431Z,35.94
2024-05-09T09:25:41.503Z,35.81
2024-05-09T09:28:08.985Z,35.21
2024-05-09T09:30:43.204Z,34.36
2024-05-09T09:33:10.543Z,35.37
2024-05-09T09:35:40.183Z,35.25
2024-05-09T09:38:08.124Z,34.89
2024-05-09T09:40:40.707Z,34.90
2024-05-09T09:43:21.554Z,34.84
2024-05-09T09:45:51.559Z,34.83
2024-05-09T09:48:20.479Z,35.66
2024-05-09T09:50:48.767Z,34.82
2024-05-09T09:53:16.150Z,35.34
2024-05-09T09:55:43.876Z,34.20
2024-05-09T09:58:13.858Z,34.10
2024-05-09T10:00:42.019Z,35.28
2024-05-09T10:03:09.330Z,33.73
2024-05-09T10:05:37.451Z,33.47
2024-05-09T10:08:10.601Z,33.59
2024-05-09T10:10:37.634Z,34.43
2024-05-09T10:13:05.198Z,34.54
2024-05-09T10:15:51.652Z,32.28
2024-05-09T10:18:28.017Z,32.77
2024-05-09T10:20:57.505Z,33.78
2024-05-09T10:23:32.984Z,32.89
2024-05-09T10:26:05.379Z,32.61
2024-05-09T10:28:34.064Z,34.16
2024-05-09T10:31:08.835Z,33.40
2024-05-09T10:33:38.971Z,32.85
2024-05-09T10:36:19.546Z,33.08
2024-05-09T10:38:46.368Z,33.00
2024-05-09T10:41:13.347Z,32.37
2024-05-09T10:43:41.439Z,31.60
2024-05-09T10:46:09.733Z,32.05
2024-05-09T10:48:38.073Z,32.76
2024-05-09T10:51:05.033Z,33.07
2024-05-09T10:53:32.304Z,32.52
2024-05-09T10:56:02.297Z,33.17
2024-05-09T10:58:29.025Z,32.05
2024-05-09T11:00:58.377Z,32.31
2024-05-09T11:03:25.590Z,31.41
2024-05-09T11:05:53.361Z,30.90
2024-05-09T11:08:24.067Z,32.11
2024-05-09T11:10:52.705Z,32.29
2024-05-09T11:13:36.406Z,31.85
2024-05-09T11:16:04.273Z,31.80
2024-05-09T11:18:36.177Z,32.28
2024-05-09T11:21:12.550Z,31.59
2024-05-09T11:23:39.889Z,31.70
2024-05-09T11:26:07.007Z,33.07
2024-05-09T11:28:33.868Z,32.39
2024-05-09T11:31:08.830Z,32.15
2024-05-09T11:33:38.312Z,32.34
2024-05-09T11:36:06.365Z,32.63
2024-05-09T11:38:33.655Z,32.00
2024-05-09T11:41:00.435Z,31.54
2024-05-09T11:43:27.235Z,30.75
2024-05-09T11:45:54.799Z,31.19
2024-05-09T11:48:21.862Z,32.02
2024-05-09T11:50:48.735Z,32.27
2024-05-09T11:53:15.523Z,32.78
2024-05-09T11:55:42.261Z,32.14
2024-05-09T11:58:09.218Z,32.83
2024-05-09T12:00:37.618Z,31.87
2024-05-09T12:03:05.964Z,31.54
2024-05-09T12:05:33.966Z,32.58
2024-05-09T12:08:01.722Z,34.29
2024-05-09T12:10:33.500Z,32.02
2024-05-09T12:13:04.932Z,32.40
2024-05-09T12:15:34.047Z,32.03
2024-05-09T12:18:03.607Z,31.18
2024-05-09T12:20:36.866Z,31.88
2024-05-09T12:23:06.552Z,31.67
2024-05-09T12:25:33.547Z,31.33
2024-05-09T12:28:00.640Z,30.83
2024-05-09T12:30:36.011Z,30.99
2024-05-09T12:33:16.006Z,30.74
2024-05-09T12:35:45.384Z,30.70
2024-05-09T12:38:15.286Z,30.64
2024-05-09T12:40:42.441Z,30.71
2024-05-09T12:43:10.601Z,30.16
2024-05-09T12:45:38.747Z,29.76
2024-05-09T12:48:08.431Z,30.22
2024-05-09T12:50:35.963Z,29.77
2024-05-09T12:53:04.188Z,29.44
2024-05-09T12:55:40.492Z,30.13
2024-05-09T12:58:16.752Z,31.20
2024-05-09T13:00:44.758Z,31.18
2024-05-09T13:03:11.732Z,29.31
2024-05-09T13:05:41.516Z,28.87
2024-05-09T13:08:08.968Z,29.03
2024-05-09T13:10:36.130Z,29.37
2024-05-09T13:13:03.077Z,29.93
2024-05-09T13:15:31.260Z,29.57
2024-05-09T13:18:02.071Z,29.23
2024-05-09T13:20:33.785Z,30.33
2024-05-09T13:23:07.356Z,30.38
2024-05-09T13:25:35.359Z,30.07
2024-05-09T13:28:03.754Z,31.54
2024-05-09T13:30:39.058Z,33.45
2024-05-09T13:33:09.628Z,33.04
2024-05-09T13:35:36.878Z,33.25
2024-05-09T13:38:05.012Z,32.60
2024-05-09T13:40:34.938Z,31.42
2024-05-09T13:43:06.406Z,32.15
2024-05-09T13:45:34.423Z,32.51
2024-05-09T13:48:02.666Z,31.24
2024-05-09T13:50:35.912Z,31.47
2024-05-09T13:53:08.102Z,31.06
2024-05-09T13:55:39.376Z,30.42
2024-05-09T13:58:07.115Z,30.55
2024-05-09T14:00:44.159Z,32.57
2024-05-09T14:03:17.943Z,31.70
2024-05-09T14:05:46.733Z,31.27
2024-05-09T14:08:15.801Z,32.96
2024-05-09T14:10:46.487Z,31.82
2024-05-09T14:13:13.765Z,32.49
2024-05-09T14:15:40.960Z,33.29
2024-05-09T14:18:11.178Z,31.51
2024-05-09T14:20:40.088Z,31.78
2024-05-09T14:23:06.836Z,31.48
2024-05-09T14:25:37.940Z,29.88
2024-05-09T14:28:07.732Z,30.74
2024-05-09T14:30:37.682Z,33.69
2024-05-09T14:33:07.117Z,35.17
2024-05-09T14:35:34.886Z,34.86
2024-05-09T14:38:02.369Z,33.41
2024-05-09T14:40:39.283Z,33.27
2024-05-09T14:43:14.235Z,35.29
2024-05-09T14:45:42.106Z,36.64
2024-05-09T14:48:09.789Z,37.20
2024-05-09T14:50:39.411Z,36.98
2024-05-09T14:53:11.927Z,37.34
2024-05-09T14:55:41.162Z,35.54
2024-05-09T14:58:10.499Z,36.25
2024-05-09T15:00:42.997Z,36.87
2024-05-09T15:03:13.308Z,37.59
2024-05-09T15:05:40.695Z,37.90
2024-05-09T15:08:08.661Z,37.19
2024-05-09T15:10:36.926Z,36.78
2024-05-09T15:13:06.591Z,37.30
2024-05-09T15:15:35.054Z,38.50
2024-05-09T15:18:02.133Z,39.13
2024-05-09T15:20:34.626Z,38.23
2024-05-09T15:23:05.184Z,39.06
2024-05-09T15:25:33.741Z,38.76
2024-05-09T15:28:00.817Z,38.19
2024-05-09T15:30:31.044Z,39.02
2024-05-09T15:33:01.491Z,39.80
2024-05-09T15:35:28.616Z,39.47
2024-05-09T15:37:55.956Z,39.57
2024-05-09T15:40:31.746Z,39.23
2024-05-09T15:43:06.133Z,39.27
2024-05-09T15:45:34.884Z,39.70
2024-05-09T15:48:03.265Z,40.37
2024-05-09T15:50:37.215Z,40.17
2024-05-09T15:53:08.537Z,40.26
2024-05-09T15:55:36.322Z,39.24
2024-05-09T15:58:04.565Z,39.67
2024-05-09T16:00:37.869Z,39.48
2024-05-09T16:03:09.413Z,39.89
2024-05-09T16:05:36.942Z,40.30
2024-05-09T16:08:05.022Z,39.69
2024-05-09T16:10:34.581Z,39.83
2024-05-09T16:13:02.476Z,39.48
2024-05-09T16:15:30.067Z,40.41
2024-05-09T16:17:57.244Z,40.53
2024-05-09T16:22:54.521Z,40.81
2024-05-09T16:25:21.399Z,40.58
2024-05-09T16:27:48.584Z,40.87
2024-05-09T16:30:24.181Z,41.16
2024-05-09T16:32:55.296Z,40.93
2024-05-09T16:35:22.089Z,41.07
2024-05-09T16:37:49.465Z,40.54
2024-05-09T16:40:25.298Z,40.68
2024-05-09T16:43:04.093Z,40.64
2024-05-09T16:45:31.298Z,41.03
2024-05-09T16:47:59.358Z,41.50
2024-05-09T16:50:31.556Z,41.42
2024-05-09T16:53:00.589Z,41.86
2024-05-09T16:55:27.643Z,41.75
2024-05-09T16:57:55.543Z,41.72
2024-05-09T17:00:31.648Z,41.47
2024-05-09T17:03:07.186Z,41.79
2024-05-09T17:05:35.259Z,42.01
2024-05-09T17:08:02.576Z,42.32
2024-05-09T17:10:33.236Z,42.21
2024-05-09T17:13:02.736Z,41.87
2024-05-09T17:15:30.057Z,42.49
2024-05-09T17:17:57.072Z,42.58
2024-05-09T17:20:31.723Z,42.95
2024-05-09T17:23:03.347Z,42.76
2024-05-09T17:25:30.132Z,42.97
2024-05-09T17:27:59.651Z,42.83
2024-05-09T17:30:32.443Z,42.76
2024-05-09T17:33:07.982Z,42.95
2024-05-09T17:35:36.712Z,43.02
2024-05-09T17:38:05.053Z,43.28
2024-05-09T17:40:35.760Z,43.40
2024-05-09T17:43:05.397Z,43.78
2024-05-09T17:45:33.122Z,44.07
2024-05-09T17:48:00.795Z,43.85
2024-05-09T17:50:34.980Z,43.59
2024-05-09T17:53:04.562Z,43.72
2024-05-09T17:55:31.584Z,43.69
2024-05-09T17:57:58.561Z,43.85
2024-05-09T18:00:36.384Z,43.63
2024-05-09T18:03:07.665Z,43.70
2024-05-09T18:05:38.242Z,43.36
2024-05-09T18:08:06.775Z,44.03
2024-05-09T18:10:37.810Z,44.24
2024-05-09T18:13:10.161Z,44.51
2024-05-09T18:15:38.197Z,44.70
2024-05-09T18:18:06.571Z,44.54
2024-05-09T18:20:41.704Z,45.18
2024-05-09T18:23:13.531Z,45.39
2024-05-09T18:25:40.943Z,45.63
2024-05-09T18:28:08.172Z,45.71
2024-05-09T18:30:36.755Z,45.86
2024-05-09T18:33:06.556Z,46.14
2024-05-09T18:35:34.761Z,46.34
2024-05-09T18:38:01.632Z,46.91
2024-05-09T18:40:34.165Z,46.64
2024-05-09T18:43:05.675Z,47.73
2024-05-09T18:45:33.935Z,48.57
2024-05-09T18:48:01.105Z,49.86
2024-05-09T18:50:34.593Z,50.19
2024-05-09T18:53:10.195Z,50.28
2024-05-09T18:55:37.575Z,51.45
2024-05-09T18:58:05.023Z,52.18
2024-05-09T19:00:36.252Z,51.30
2024-05-09T19:03:17.738Z,51.21
2024-05-09T19:05:46.015Z,50.54
2024-05-09T19:08:14.502Z,50.42
2024-05-09T19:10:41.649Z,50.84
2024-05-09T19:13:12.122Z,51.12
2024-05-09T19:15:43.269Z,52.07
2024-05-09T19:18:14.203Z,53.46
2024-05-09T19:20:41.712Z,53.98
2024-05-09T19:23:08.544Z,54.37
2024-05-09T19:25:36.196Z,54.97
2024-05-09T19:28:04.175Z,55.81
2024-05-09T19:30:38.596Z,56.45
2024-05-09T19:33:09.446Z,56.96
2024-05-09T19:35:37.064Z,57.43
2024-05-09T19:38:04.332Z,57.59
2024-05-09T19:40:33.484Z,57.69
2024-05-09T19:43:03.193Z,57.99
2024-05-09T19:45:32.347Z,58.10
2024-05-09T19:47:59.402Z,58.52
2024-05-09T19:50:32.730Z,59.37
2024-05-09T19:53:07.869Z,59.33
2024-05-09T19:55:35.108Z,59.49
2024-05-09T19:58:05.225Z,59.92
2024-05-09T20:00:39.547Z,59.84
2024-05-09T20:03:09.273Z,60.54
2024-05-09T20:05:37.158Z,60.43
2024-05-09T20:08:04.933Z,61.15
2024-05-09T20:10:34.090Z,61.14
2024-05-09T20:13:02.878Z,61.55
2024-05-09T20:15:30.182Z,61.47
2024-05-09T20:17:57.135Z,61.47
2024-05-09T20:20:32.898Z,61.89
2024-05-09T20:23:07.281Z,61.97
2024-05-09T20:25:34.043Z,62.29
2024-05-09T20:28:01.060Z,62.54
2024-05-09T20:30:32.237Z,62.57
2024-05-09T20:33:03.020Z,62.05
2024-05-09T20:35:32.738Z,62.28
2024-05-09T20:38:01.281Z,62.27
2024-05-09T20:40:33.046Z,62.22
2024-05-09T20:43:03.920Z,63.06
2024-05-09T20:45:30.744Z,62.86
2024-05-09T20:47:57.971Z,62.96
2024-05-09T20:50:35.558Z,62.59
2024-05-09T20:53:08.526Z,62.87
2024-05-09T20:55:35.404Z,62.49
2024-05-09T20:58:02.306Z,62.89
2024-05-09T21:00:35.544Z,63.42
2024-05-09T21:03:08.042Z,63.57
2024-05-09T21:05:35.553Z,63.75
2024-05-09T21:08:02.939Z,63.54
2024-05-09T21:10:32.581Z,63.37
2024-05-09T21:13:01.890Z,63.92
2024-05-09T21:15:29.440Z,63.46
2024-05-09T21:17:56.381Z,63.60
2024-05-09T21:20:29.083Z,63.83
2024-05-09T21:22:58.657Z,63.72
2024-05-09T21:25:25.629Z,63.01
2024-05-09T21:27:53.195Z,63.54
2024-05-09T21:30:31.468Z,63.71
2024-05-09T21:33:08.812Z,63.72
2024-05-09T21:35:36.326Z,63.54
2024-05-09T21:38:04.540Z,63.79
2024-05-09T21:40:34.779Z,64.05
2024-05-09T21:43:04.367Z,64.70
2024-05-09T21:45:31.699Z,64.53
2024-05-09T21:47:58.860Z,64.80
2024-05-09T21:50:32.471Z,64.58
2024-05-09T21:53:06.620Z,65.37
2024-05-09T21:55:33.917Z,64.65
2024-05-09T21:58:01.948Z,64.44
2024-05-09T22:00:35.786Z,64.12
2024-05-09T22:03:06.195Z,63.46
2024-05-09T22:05:33.292Z,63.52
2024-05-09T22:08:00.315Z,64.04
2024-05-09T22:10:33.356Z,64.23
2024-05-09T22:13:02.607Z,64.84
2024-05-09T22:15:29.455Z,64.55
2024-05-09T22:17:57.386Z,65.07
2024-05-09T22:20:34.262Z,65.14
2024-05-09T22:23:05.056Z,65.79
2024-05-09T22:25:32.583Z,65.89
2024-05-09T22:28:02.300Z,66.04
2024-05-09T22:32:59.233Z,66.18
2024-05-09T22:35:26.338Z,66.41
2024-05-09T22:37:53.098Z,66.14
2024-05-09T22:40:28.963Z,66.48
2024-05-09T22:43:05.655Z,66.47
2024-05-09T22:45:32.715Z,66.33
2024-05-09T22:47:59.826Z,66.36
2024-05-09T22:50:30.839Z,66.02
2024-05-09T22:52:59.830Z,65.54
2024-05-09T22:55:26.619Z,65.49
2024-05-09T22:57:53.494Z,65.26
2024-05-09T23:00:29.154Z,65.06
2024-05-09T23:03:02.256Z,65.28
2024-05-09T23:05:29.777Z,65.64
2024-05-09T23:07:56.822Z,65.79
2024-05-09T23:10:31.667Z,65.91
2024-05-09T23:13:02.994Z,65.42
2024-05-09T23:15:30.120Z,65.46
2024-05-09T23:17:57.845Z,65.54
2024-05-09T23:22:54.644Z,66.10
2024-05-09T23:25:21.464Z,66.51
2024-05-09T23:27:48.270Z,66.84
2024-05-09T23:30:25.840Z,66.90
2024-05-09T23:33:00.531Z,66.94
2024-05-09T23:35:27.482Z,67.07
2024-05-09T23:37:54.256Z,67.31
2024-05-09T23:40:23.330Z,66.93
2024-05-09T23:42:50.884Z,66.17
2024-05-09T23:45:17.725Z,65.63
2024-05-09T23:47:44.814Z,65.55
2024-05-09T23:50:16.945Z,65.82
2024-05-09T23:52:50.504Z,65.66
2024-05-09T23:55:17.422Z,65.72
2024-05-09T23:57:44.453Z,66.13
